createdAt,value
2019-01-17T00:00:28.208Z,99265.43
2019-01-17T00:03:05.097Z,99253.41
2019-01-17T00:05:37.601Z,99249.52
2019-01-17T00:08:20.389Z,99233.11
2019-01-17T00:10:54.010Z,99238.69
2019-01-17T00:13:33.747Z,99240.01
2019-01-17T00:16:21.294Z,99241.27
2019-01-17T00:18:58.498Z,99235.23
2019-01-17T00:21:35.152Z,99217.59
2019-01-17T00:24:15.237Z,99232.63
2019-01-17T00:26:49.102Z,99236.50
2019-01-17T00:29:22.963Z,99236.47
2019-01-17T00:31:54.373Z,99239.46
2019-01-17T00:34:31.502Z,99242.88
2019-01-17T00:37:02.797Z,99233.44
2019-01-17T00:39:33.966Z,99226.16
2019-01-17T00:42:08.179Z,99213.27
2019-01-17T00:44:48.325Z,99222.30
2019-01-17T00:47:19.665Z,99216.30
2019-01-17T00:49:48.961Z,99215.50
2019-01-17T00:52:35.976Z,99212.92
2019-01-17T00:55:15.391Z,99204.77
2019-01-17T00:57:49.507Z,99200.45
2019-01-17T01:00:20.788Z,99203.52
2019-01-17T01:02:54.750Z,99202.25
2019-01-17T01:05:25.956Z,99200.55
2019-01-17T01:07:57.189Z,99197.10
2019-01-17T01:10:37.252Z,99200.97
2019-01-17T01:13:07.130Z,99202.28
2019-01-17T01:15:43.793Z,99187.72
2019-01-17T01:18:17.417Z,99193.00
2019-01-17T01:20:48.776Z,99193.48
2019-01-17T01:23:25.943Z,99203.30
2019-01-17T01:25:57.163Z,99201.53
2019-01-17T01:28:31.070Z,99207.50
2019-01-17T01:31:02.276Z,99201.09
2019-01-17T01:33:34.332Z,99179.20
2019-01-17T01:36:14.686Z,99170.66
2019-01-17T01:38:51.667Z,99178.01
2019-01-17T01:41:21.011Z,99184.87
2019-01-17T01:43:58.049Z,99181.39
2019-01-17T01:46:29.245Z,99177.11
2019-01-17T01:49:00.483Z,99171.09
2019-01-17T01:51:37.187Z,99171.92
2019-01-17T01:54:06.914Z,99159.04
2019-01-17T01:56:36.449Z,99165.93
2019-01-17T01:59:06.060Z,99167.25
2019-01-17T02:01:35.599Z,99172.47
2019-01-17T02:04:05.609Z,99167.76
2019-01-17T02:06:35.146Z,99176.33
2019-01-17T02:09:07.687Z,99168.63
2019-01-17T02:11:37.569Z,99163.97
2019-01-17T02:14:07.756Z,99158.84
2019-01-17T02:16:37.384Z,99147.66
2019-01-17T02:19:06.997Z,99149.85
2019-01-17T02:21:36.592Z,99138.72
2019-01-17T02:24:06.292Z,99140.94
2019-01-17T02:26:35.823Z,99133.73
2019-01-17T02:29:05.610Z,99135.13
2019-01-17T02:31:35.154Z,99134.80
2019-01-17T02:34:04.969Z,99121.14
2019-01-17T02:36:34.503Z,99128.13
2019-01-17T02:39:05.722Z,99123.07
2019-01-17T02:41:35.384Z,99123.58
2019-01-17T02:44:05.115Z,99119.39
2019-01-17T02:46:34.717Z,99112.99
2019-01-17T02:49:04.592Z,99110.48
2019-01-17T02:51:34.161Z,99108.81
2019-01-17T02:54:03.847Z,99098.10
2019-01-17T02:56:33.457Z,99087.00
2019-01-17T02:59:03.193Z,99106.84
2019-01-17T03:01:32.729Z,99106.89
2019-01-17T03:04:02.271Z,99100.05
2019-01-17T03:06:32.214Z,99109.13
2019-01-17T03:09:01.818Z,99097.56
2019-01-17T03:11:31.420Z,99099.32
2019-01-17T03:14:00.988Z,99086.41
2019-01-17T03:16:30.600Z,99086.45
2019-01-17T03:19:00.141Z,99091.64
2019-01-17T03:21:29.780Z,99098.12
2019-01-17T03:23:59.315Z,99084.39
2019-01-17T03:26:28.855Z,99082.68
2019-01-17T03:28:59.095Z,99099.49
2019-01-17T03:31:28.640Z,99091.74
2019-01-17T03:33:58.189Z,99087.89
2019-01-17T03:36:27.824Z,99089.64
2019-01-17T03:38:57.358Z,99079.75
2019-01-17T03:41:26.983Z,99078.50
2019-01-17T03:43:56.923Z,99073.77
2019-01-17T03:46:26.467Z,99077.23
2019-01-17T03:48:56.011Z,99084.13
2019-01-17T03:51:25.589Z,99082.86
2019-01-17T03:53:55.124Z,99081.58
2019-01-17T03:56:24.664Z,99080.30
2019-01-17T03:58:54.302Z,99085.94
2019-01-17T04:01:23.842Z,99090.70
2019-01-17T04:03:53.558Z,99084.23
2019-01-17T04:06:23.396Z,99081.23
2019-01-17T04:08:53.012Z,99075.20
2019-01-17T04:11:22.560Z,99070.91
2019-01-17T04:13:52.142Z,99078.66
2019-01-17T04:16:21.663Z,99082.55
2019-01-17T04:18:51.338Z,99091.16
2019-01-17T04:21:20.926Z,99088.59
2019-01-17T04:23:50.469Z,99094.63
2019-01-17T04:26:20.074Z,99083.00
2019-01-17T04:28:49.792Z,99090.33
2019-01-17T04:31:19.332Z,99089.03
2019-01-17T04:33:48.932Z,99087.73
2019-01-17T04:36:18.612Z,99080.41
2019-01-17T04:38:48.154Z,99082.15
2019-01-17T04:41:17.760Z,99084.73
2019-01-17T04:43:47.347Z,99089.92
2019-01-17T04:46:16.879Z,99089.06
2019-01-17T04:48:46.424Z,99092.54
2019-01-17T04:51:16.331Z,99096.44
2019-01-17T04:53:45.870Z,99093.86
2019-01-17T04:56:15.406Z,99085.28
2019-01-17T04:58:44.968Z,99088.71
2019-01-17T05:01:14.498Z,99088.30
2019-01-17T05:03:44.057Z,99081.86
2019-01-17T05:06:13.640Z,99085.33
2019-01-17T05:08:43.190Z,99084.93
2019-01-17T05:11:12.732Z,99082.38
2019-01-17T05:13:42.295Z,99086.23
2019-01-17T05:16:11.835Z,99087.53
2019-01-17T05:18:41.382Z,99091.02
2019-01-17T05:21:11.449Z,99083.70
2019-01-17T05:23:40.988Z,99084.59
2019-01-17T05:26:10.547Z,99089.78
2019-01-17T05:28:40.371Z,99103.16
2019-01-17T05:31:09.917Z,99098.87
2019-01-17T05:33:39.496Z,99096.70
2019-01-17T05:36:09.017Z,99097.16
2019-01-17T05:38:38.555Z,99092.02
2019-01-17T05:41:08.166Z,99086.44
2019-01-17T05:43:37.741Z,99085.60
2019-01-17T05:46:07.277Z,99094.23
2019-01-17T05:48:36.817Z,99096.86
2019-01-17T05:51:06.839Z,99100.33
2019-01-17T05:53:36.445Z,99086.97
2019-01-17T05:56:06.054Z,99090.84
2019-01-17T05:58:35.704Z,99093.44
2019-01-17T06:01:05.497Z,99098.62
2019-01-17T06:03:35.093Z,99095.18
2019-01-17T06:06:05.015Z,99099.52
2019-01-17T06:08:34.558Z,99099.95
2019-01-17T06:11:04.096Z,99090.47
2019-01-17T06:13:33.828Z,99099.06
2019-01-17T06:16:03.938Z,99100.80
2019-01-17T06:18:33.485Z,99105.55
2019-01-17T06:21:03.057Z,99109.43
2019-01-17T06:23:32.599Z,99125.84
2019-01-17T06:26:02.448Z,99121.97
2019-01-17T06:28:32.299Z,99119.83
2019-01-17T06:31:02.095Z,99118.97
2019-01-17T06:33:31.657Z,99119.41
2019-01-17T06:36:01.530Z,99119.42
2019-01-17T06:38:31.136Z,99122.02
2019-01-17T06:41:00.679Z,99128.06
2019-01-17T06:43:31.217Z,99136.27
2019-01-17T06:46:00.779Z,99141.02
2019-01-17T06:48:30.321Z,99141.00
2019-01-17T06:50:59.905Z,99152.23
2019-01-17T06:53:29.442Z,99153.53
2019-01-17T06:55:59.057Z,99139.73
2019-01-17T06:58:30.466Z,99139.31
2019-01-17T07:01:00.013Z,99136.30
2019-01-17T07:03:29.547Z,99124.23
2019-01-17T07:05:59.135Z,99140.20
2019-01-17T07:08:28.683Z,99129.83
2019-01-17T07:10:58.222Z,99149.25
2019-01-17T07:13:27.793Z,99141.05
2019-01-17T07:15:57.333Z,99154.44
2019-01-17T07:18:26.868Z,99161.35
2019-01-17T07:20:56.719Z,99162.22
2019-01-17T07:23:26.328Z,99160.06
2019-01-17T07:25:55.865Z,99164.37
2019-01-17T07:28:25.437Z,99173.41
2019-01-17T07:30:54.983Z,99173.81
2019-01-17T07:33:24.523Z,99187.59
2019-01-17T07:35:54.086Z,99196.23
2019-01-17T07:38:23.637Z,99195.36
2019-01-17T07:40:53.242Z,99196.22
2019-01-17T07:43:22.943Z,99190.61
2019-01-17T07:45:52.473Z,99181.56
2019-01-17T07:48:22.015Z,99190.63
2019-01-17T07:50:51.578Z,99188.49
2019-01-17T07:53:21.115Z,99188.96
2019-01-17T07:55:50.751Z,99201.03
2019-01-17T07:58:20.553Z,99201.06
2019-01-17T08:00:50.179Z,99204.09
2019-01-17T08:03:19.730Z,99210.57
2019-01-17T08:05:49.750Z,99220.92
2019-01-17T08:08:19.304Z,99218.77
2019-01-17T08:10:48.831Z,99215.27
2019-01-17T08:13:18.479Z,99223.87
2019-01-17T08:15:48.083Z,99224.32
2019-01-17T08:18:18.727Z,99232.97
2019-01-17T08:20:48.613Z,99236.02
2019-01-17T08:23:18.234Z,99235.18
2019-01-17T08:25:53.977Z,99239.06
2019-01-17T08:28:19.070Z,99244.71
2019-01-17T08:30:48.608Z,99244.31
2019-01-17T08:33:18.160Z,99235.30
2019-01-17T08:35:47.749Z,99238.34
2019-01-17T08:38:17.674Z,99240.50
2019-01-17T08:40:47.308Z,99249.62
2019-01-17T08:43:17.233Z,99246.62
2019-01-17T08:45:46.835Z,99245.34
2019-01-17T08:48:16.450Z,99247.09
2019-01-17T08:50:46.031Z,99237.58
2019-01-17T08:53:15.581Z,99256.64
2019-01-17T08:55:45.114Z,99261.44
2019-01-17T08:58:14.688Z,99263.59
2019-01-17T09:00:44.228Z,99271.79
2019-01-17T09:03:13.767Z,99270.06
2019-01-17T09:05:43.519Z,99287.77
2019-01-17T09:08:13.125Z,99286.05
2019-01-17T09:10:42.744Z,99278.25
2019-01-17T09:13:12.447Z,99287.77
2019-01-17T09:15:42.029Z,99271.38
2019-01-17T09:18:11.636Z,99272.69
2019-01-17T09:20:41.266Z,99274.44
2019-01-17T09:23:10.802Z,99283.11
2019-01-17T09:25:40.423Z,99288.72
2019-01-17T09:28:10.110Z,99289.62
2019-01-17T09:30:39.675Z,99286.19
2019-01-17T09:33:09.217Z,99294.41
2019-01-17T09:35:38.921Z,99294.01
2019-01-17T09:38:08.456Z,99287.09
2019-01-17T09:40:37.998Z,99293.58
2019-01-17T09:43:07.582Z,99296.62
2019-01-17T09:45:37.119Z,99304.44
2019-01-17T09:48:06.755Z,99298.42
2019-01-17T09:50:36.473Z,99296.27
2019-01-17T09:53:06.086Z,99299.31
2019-01-17T09:55:35.718Z,99304.09
2019-01-17T09:58:05.598Z,99300.61
2019-01-17T10:00:35.212Z,99301.91
2019-01-17T10:03:04.890Z,99293.27
2019-01-17T10:05:34.724Z,99295.00
2019-01-17T10:08:04.607Z,99301.48
2019-01-17T10:10:34.143Z,99296.73
2019-01-17T10:13:03.850Z,99302.81
2019-01-17T10:15:50.552Z,99304.57
2019-01-17T10:18:55.913Z,99300.25
2019-01-17T10:22:01.837Z,99302.84
2019-01-17T10:24:59.736Z,99299.37
2019-01-17T10:27:58.403Z,99291.61
2019-01-17T10:31:03.568Z,99290.73
2019-01-17T10:33:49.456Z,99298.55
2019-01-17T10:36:44.975Z,99290.36
2019-01-17T10:39:55.380Z,99298.14
2019-01-17T10:42:49.927Z,99289.95
2019-01-17T10:45:52.450Z,99286.06
2019-01-17T10:48:45.882Z,99280.86
2019-01-17T10:51:40.602Z,99267.02
2019-01-17T10:54:14.886Z,99277.81
2019-01-17T10:57:06.506Z,99274.80
2019-01-17T10:59:46.097Z,99270.46
2019-01-17T11:02:38.537Z,99268.32
2019-01-17T11:05:36.899Z,99263.13
2019-01-17T11:08:37.673Z,99271.38
2019-01-17T11:11:45.518Z,99260.13
2019-01-17T11:14:31.568Z,99254.95
2019-01-17T11:17:28.771Z,99251.05
2019-01-17T11:20:08.531Z,99261.89
2019-01-17T11:22:54.776Z,99255.84
2019-01-17T11:25:56.282Z,99251.96
2019-01-17T11:28:57.698Z,99243.29
2019-01-17T11:32:08.830Z,99237.23
2019-01-17T11:34:54.291Z,99241.55
2019-01-17T11:37:57.452Z,99257.14
2019-01-17T11:40:55.770Z,99233.33
2019-01-17T11:43:36.025Z,99254.13
2019-01-17T11:46:19.144Z,99232.48
2019-01-17T11:49:26.514Z,99233.78
2019-01-17T11:52:24.249Z,99237.23
2019-01-17T11:55:03.611Z,99231.17
2019-01-17T11:57:49.216Z,99224.67
2019-01-17T12:00:26.407Z,99226.42
2019-01-17T12:03:06.443Z,99223.38
2019-01-17T12:05:35.996Z,99222.51
2019-01-17T12:08:05.671Z,99225.11
2019-01-17T12:10:35.236Z,99221.22
2019-01-17T12:13:05.115Z,99221.23
2019-01-17T12:15:34.656Z,99218.20
2019-01-17T12:18:04.292Z,99219.47
2019-01-17T12:20:33.840Z,99218.19
2019-01-17T12:23:03.381Z,99217.76
2019-01-17T12:25:33.143Z,99207.80
2019-01-17T12:28:02.684Z,99215.59
2019-01-17T12:30:32.220Z,99221.66
2019-01-17T12:33:02.171Z,99211.67
2019-01-17T12:35:31.711Z,99205.62
2019-01-17T12:38:01.256Z,99203.45
2019-01-17T12:40:30.818Z,99200.42
2019-01-17T12:43:00.371Z,99190.04
2019-01-17T12:45:30.038Z,99199.56
2019-01-17T12:47:59.705Z,99196.53
2019-01-17T12:50:29.316Z,99185.70
2019-01-17T12:52:58.929Z,99181.84
2019-01-17T12:55:28.572Z,99186.59
2019-01-17T12:57:58.114Z,99173.18
2019-01-17T13:00:27.778Z,99173.59
2019-01-17T13:02:57.453Z,99166.25
2019-01-17T13:05:26.999Z,99165.38
2019-01-17T13:07:56.530Z,99163.67
2019-01-17T13:10:26.116Z,99148.95
2019-01-17T13:12:55.661Z,99145.93
2019-01-17T13:15:25.332Z,99146.80
2019-01-17T13:17:55.208Z,99151.53
2019-01-17T13:20:24.820Z,99144.17
2019-01-17T13:22:54.360Z,99140.71
2019-01-17T13:25:24.102Z,99140.28
2019-01-17T13:27:53.790Z,99142.03
2019-01-17T13:30:24.662Z,99137.70
2019-01-17T13:32:54.240Z,99148.52
2019-01-17T13:35:23.780Z,99141.61
2019-01-17T13:37:53.401Z,99153.70
2019-01-17T13:40:23.408Z,99144.64
2019-01-17T13:42:53.020Z,99149.83
2019-01-17T13:45:22.800Z,99142.05
2019-01-17T13:47:52.424Z,99143.77
2019-01-17T13:50:22.107Z,99137.70
2019-01-17T13:52:51.662Z,99143.33
2019-01-17T13:55:21.231Z,99144.19
2019-01-17T13:57:50.765Z,99139.45
2019-01-17T14:00:25.593Z,99135.98
2019-01-17T14:02:55.398Z,99139.86
2019-01-17T14:05:25.008Z,99131.66
2019-01-17T14:07:54.578Z,99124.72
2019-01-17T14:10:24.287Z,99137.67
2019-01-17T14:12:53.882Z,99130.77
2019-01-17T14:15:30.508Z,99134.63
2019-01-17T14:18:00.049Z,99142.42
2019-01-17T14:20:29.667Z,99139.39
2019-01-17T14:22:59.362Z,99125.57
2019-01-17T14:25:28.895Z,99130.31
2019-01-17T14:27:58.502Z,99132.05
2019-01-17T14:30:32.861Z,99133.35
2019-01-17T14:33:02.393Z,99134.66
2019-01-17T14:35:31.942Z,99126.44
2019-01-17T14:38:01.510Z,99121.66
2019-01-17T14:40:31.045Z,99114.33
2019-01-17T14:43:00.582Z,99125.09
2019-01-17T14:45:30.628Z,99118.16
2019-01-17T14:48:00.162Z,99111.67
2019-01-17T14:50:31.710Z,99108.61
2019-01-17T14:53:01.479Z,99109.90
2019-01-17T14:55:31.021Z,99107.69
2019-01-17T14:58:00.559Z,99108.54
2019-01-17T15:00:34.090Z,99111.94
2019-01-17T15:03:03.796Z,99103.71
2019-01-17T15:05:33.472Z,99111.89
2019-01-17T15:08:03.063Z,99109.62
2019-01-17T15:10:36.967Z,99107.41
2019-01-17T15:13:06.852Z,99110.36
2019-01-17T15:15:36.630Z,99110.72
2019-01-17T15:18:06.707Z,99110.70
2019-01-17T15:20:36.248Z,99111.94
2019-01-17T15:23:06.054Z,99101.55
2019-01-17T15:25:35.589Z,99110.09
2019-01-17T15:28:05.946Z,99107.00
2019-01-17T15:30:35.728Z,99106.92
2019-01-17T15:33:05.611Z,99106.01
2019-01-17T15:35:35.146Z,99104.20
2019-01-17T15:38:05.295Z,99099.85
2019-01-17T15:40:35.154Z,99103.25
2019-01-17T15:43:04.763Z,99098.50
2019-01-17T15:45:34.356Z,99095.03
2019-01-17T15:48:03.962Z,99101.92
2019-01-17T15:50:33.672Z,99095.86
2019-01-17T15:53:03.279Z,99091.56
2019-01-17T15:55:32.830Z,99089.00
2019-01-17T15:58:02.434Z,99093.81
2019-01-17T16:00:32.546Z,99090.85
2019-01-17T16:03:02.156Z,99087.42
2019-01-17T16:05:31.786Z,99095.17
2019-01-17T16:08:01.397Z,99094.73
2019-01-17T16:10:31.204Z,99094.29
2019-01-17T16:13:00.763Z,99096.86
2019-01-17T16:15:30.743Z,99095.55
2019-01-17T16:18:00.290Z,99092.98
2019-01-17T16:20:29.919Z,99093.90
2019-01-17T16:22:59.677Z,99090.94
2019-01-17T16:25:29.285Z,99094.01
2019-01-17T16:27:58.844Z,99088.93
2019-01-17T16:30:30.651Z,99088.55
2019-01-17T16:33:00.263Z,99079.55
2019-01-17T16:35:29.818Z,99086.06
2019-01-17T16:37:59.409Z,99084.77
2019-01-17T16:40:29.053Z,99092.58
2019-01-17T16:42:58.650Z,99096.48
2019-01-17T16:45:28.301Z,99095.22
2019-01-17T16:47:57.833Z,99100.44
2019-01-17T16:50:27.589Z,99097.02
2019-01-17T16:52:57.153Z,99092.70
2019-01-17T16:55:26.707Z,99100.93
2019-01-17T16:57:56.255Z,99098.78
2019-01-17T17:00:30.530Z,99095.73
2019-01-17T17:03:00.229Z,99095.72
2019-01-17T17:05:29.792Z,99100.86
2019-01-17T17:07:59.332Z,99098.67
2019-01-17T17:10:28.882Z,99099.95
2019-01-17T17:12:58.422Z,99096.94
2019-01-17T17:15:28.665Z,99099.94
2019-01-17T17:17:58.300Z,99104.67
2019-01-17T17:20:28.059Z,99105.50
2019-01-17T17:22:57.635Z,99103.72
2019-01-17T17:25:27.173Z,99101.51
2019-01-17T17:27:56.867Z,99102.31
2019-01-17T17:30:28.430Z,99109.09
2019-01-17T17:32:58.065Z,99111.16
2019-01-17T17:35:27.614Z,99106.81
2019-01-17T17:37:57.651Z,99113.12
2019-01-17T17:40:29.496Z,99122.52
2019-01-17T17:42:59.067Z,99120.74
2019-01-17T17:45:28.706Z,99115.08
2019-01-17T17:47:58.345Z,99112.45
2019-01-17T17:50:27.891Z,99124.48
2019-01-17T17:52:57.491Z,99121.86
2019-01-17T17:55:27.032Z,99122.72
2019-01-17T17:58:02.130Z,99125.30
2019-01-17T18:00:29.814Z,99127.44
2019-01-17T18:02:59.729Z,99125.30
2019-01-17T18:05:29.284Z,99121.36
2019-01-17T18:07:58.950Z,99121.34
2019-01-17T18:10:28.498Z,99122.15
2019-01-17T18:12:58.048Z,99128.98
2019-01-17T18:15:27.706Z,99139.24
2019-01-17T18:17:57.344Z,99149.94
2019-01-17T18:20:26.890Z,99150.30
2019-01-17T18:22:56.473Z,99163.58
2019-01-17T18:25:26.020Z,99166.94
2019-01-17T18:27:55.589Z,99169.92
2019-01-17T18:30:27.541Z,99174.62
2019-01-17T18:32:57.224Z,99169.85
2019-01-17T18:35:26.777Z,99172.80
2019-01-17T18:37:56.490Z,99186.53
2019-01-17T18:40:26.100Z,99187.80
2019-01-17T18:42:55.807Z,99187.30
2019-01-17T18:45:28.942Z,99195.81
2019-01-17T18:47:58.534Z,99199.22
2019-01-17T18:50:31.978Z,99203.90
2019-01-17T18:53:01.845Z,99198.69
2019-01-17T18:55:31.547Z,99204.27
2019-01-17T18:58:01.245Z,99217.20
2019-01-17T19:00:31.487Z,99215.87
2019-01-17T19:03:01.270Z,99223.59
2019-01-17T19:05:31.243Z,99227.45
2019-01-17T19:08:01.124Z,99224.48
2019-01-17T19:10:30.801Z,99222.33
2019-01-17T19:13:00.335Z,99216.27
2019-01-17T19:15:32.312Z,99218.83
2019-01-17T19:18:01.986Z,99224.43
2019-01-17T19:20:31.719Z,99247.67
2019-01-17T19:23:01.785Z,99246.41
2019-01-17T19:25:31.457Z,99262.77
2019-01-17T19:28:00.987Z,99266.22
2019-01-17T19:30:31.299Z,99274.88
2019-01-17T19:33:01.196Z,99274.91
2019-01-17T19:35:30.807Z,99276.65
2019-01-17T19:38:00.395Z,99280.12
2019-01-17T19:40:30.821Z,99293.92
2019-01-17T19:43:00.426Z,99298.25
2019-01-17T19:45:30.136Z,99299.12
2019-01-17T19:47:59.676Z,99308.18
2019-01-17T19:50:35.703Z,99311.66
2019-01-17T19:53:05.615Z,99313.00
2019-01-17T19:55:36.364Z,99316.45
2019-01-17T19:58:06.193Z,99323.35
2019-01-17T20:00:35.969Z,99332.86
2019-01-17T20:03:06.418Z,99333.70
2019-01-17T20:05:36.530Z,99343.19
2019-01-17T20:08:06.153Z,99346.61
2019-01-17T20:10:35.919Z,99352.20
2019-01-17T20:13:06.110Z,99365.94
2019-01-17T20:15:35.780Z,99354.30
2019-01-17T20:18:05.785Z,99360.75
2019-01-17T20:20:35.570Z,99363.75
2019-01-17T20:23:05.408Z,99377.95
2019-01-17T20:25:35.010Z,99378.37
2019-01-17T20:28:05.052Z,99375.34
2019-01-17T20:30:35.157Z,99392.53
2019-01-17T20:33:04.916Z,99393.41
2019-01-17T20:35:34.582Z,99384.77
2019-01-17T20:38:04.807Z,99391.19
2019-01-17T20:40:34.482Z,99396.77
2019-01-17T20:43:04.368Z,99394.61
2019-01-17T20:45:34.037Z,99398.92
2019-01-17T20:48:03.825Z,99406.67
2019-01-17T20:50:33.733Z,99409.70
2019-01-17T20:53:03.444Z,99411.41
2019-01-17T20:55:33.069Z,99427.25
2019-01-17T20:58:02.735Z,99418.55
2019-01-17T21:00:45.226Z,99425.87
2019-01-17T21:03:17.392Z,99432.28
2019-01-17T21:05:46.998Z,99436.96
2019-01-17T21:08:16.605Z,99436.44
2019-01-17T21:10:46.245Z,99437.64
2019-01-17T21:13:15.786Z,99438.47
2019-01-17T21:15:45.329Z,99439.77
2019-01-17T21:18:15.011Z,99455.59
2019-01-17T21:20:44.545Z,99454.59
2019-01-17T21:23:14.157Z,99468.21
2019-01-17T21:25:43.808Z,99459.11
2019-01-17T21:28:13.418Z,99460.86
2019-01-17T21:30:42.954Z,99469.84
2019-01-17T21:33:12.863Z,99469.67
2019-01-17T21:35:42.414Z,99473.42
2019-01-17T21:38:11.948Z,99475.48
2019-01-17T21:40:41.517Z,99477.14
2019-01-17T21:43:11.069Z,99485.68
2019-01-17T21:45:40.606Z,99486.36
2019-01-17T21:48:10.181Z,99493.52
2019-01-17T21:50:39.732Z,99496.44
2019-01-17T21:53:09.441Z,99502.88
2019-01-17T21:55:39.071Z,99505.98
2019-01-17T21:58:08.617Z,99512.48
2019-01-17T22:00:38.245Z,99521.58
2019-01-17T22:03:07.818Z,99523.39
2019-01-17T22:05:37.363Z,99527.72
2019-01-17T22:08:06.897Z,99528.22
2019-01-17T22:10:36.474Z,99527.84
2019-01-17T22:13:06.174Z,99527.04
2019-01-17T22:15:35.730Z,99535.65
2019-01-17T22:18:05.512Z,99542.13
2019-01-17T22:20:35.055Z,99541.19
2019-01-17T22:23:04.604Z,99545.42
2019-01-17T22:25:34.539Z,99542.77
2019-01-17T22:28:04.150Z,99546.10
2019-01-17T22:30:33.756Z,99543.45
2019-01-17T22:33:03.325Z,99546.02
2019-01-17T22:35:32.943Z,99556.79
2019-01-17T22:38:02.469Z,99552.17
2019-01-17T22:40:32.036Z,99556.95
2019-01-17T22:43:01.583Z,99562.19
2019-01-17T22:45:32.618Z,99564.69
2019-01-17T22:48:02.333Z,99562.06
2019-01-17T22:50:31.878Z,99567.97
2019-01-17T22:53:01.410Z,99569.59
2019-01-17T22:55:30.979Z,99580.28
2019-01-17T22:58:00.529Z,99579.82
2019-01-17T23:00:56.979Z,99591.84
2019-01-17T23:03:33.536Z,99588.80
2019-01-17T23:06:03.166Z,99589.67
2019-01-17T23:08:32.704Z,99591.84
2019-01-17T23:11:02.374Z,99606.47
2019-01-17T23:13:32.111Z,99595.70
2019-01-17T23:16:01.651Z,99607.76
2019-01-17T23:18:31.396Z,99613.33
2019-01-17T23:21:01.054Z,99625.34
2019-01-17T23:23:30.622Z,99622.22
2019-01-17T23:26:00.155Z,99642.21
2019-01-17T23:28:29.725Z,99635.92
2019-01-17T23:30:59.374Z,99625.43
2019-01-17T23:33:28.875Z,99629.45
2019-01-17T23:35:58.582Z,99632.53
2019-01-17T23:38:28.114Z,99631.45
2019-01-17T23:40:57.651Z,99636.80
2019-01-17T23:43:27.359Z,99649.09
2019-01-17T23:45:56.892Z,99643.08
2019-01-17T23:48:26.432Z,99649.87
2019-01-17T23:50:56.428Z,99642.98
2019-01-17T23:53:26.390Z,99649.52
2019-01-17T23:55:55.928Z,99646.98
2019-01-17T23:58:25.506Z,99659.96
